createdAt,value
2018-10-11T00:01:06.488Z,73.75
2018-10-11T00:03:34.896Z,73.62
2018-10-11T00:06:03.241Z,73.99
2018-10-11T00:08:31.624Z,74.03
2018-10-11T00:10:59.961Z,74.19
2018-10-11T00:13:28.350Z,73.89
2018-10-11T00:15:56.718Z,75.05
2018-10-11T00:18:25.077Z,75.04
2018-10-11T00:20:53.437Z,75.22
2018-10-11T00:23:21.813Z,75.10
2018-10-11T00:25:50.153Z,75.33
2018-10-11T00:28:18.503Z,75.97
2018-10-11T00:30:46.931Z,75.35
2018-10-11T00:33:15.216Z,75.30
2018-10-11T00:35:43.577Z,75.41
2018-10-11T00:38:11.941Z,75.58
2018-10-11T00:40:40.272Z,76.75
2018-10-11T00:43:08.621Z,77.19
2018-10-11T00:45:37.304Z,77.53
2018-10-11T00:48:06.713Z,78.02
2018-10-11T00:50:35.063Z,77.96
2018-10-11T00:53:03.417Z,78.58
2018-10-11T00:55:31.884Z,78.13
2018-10-11T00:58:00.226Z,78.99
2018-10-11T01:00:28.565Z,78.46
2018-10-11T01:02:56.909Z,78.68
2018-10-11T01:05:25.244Z,79.45
2018-10-11T01:07:57.293Z,79.93
2018-10-11T01:10:25.632Z,80.55
2018-10-11T01:12:54.068Z,81.34
2018-10-11T01:15:22.397Z,81.30
2018-10-11T01:17:50.733Z,81.83
2018-10-11T01:20:19.058Z,82.02
2018-10-11T01:22:47.837Z,82.10
2018-10-11T01:25:16.217Z,82.35
2018-10-11T01:27:44.560Z,82.61
2018-10-11T01:30:13.034Z,83.23
2018-10-11T01:32:41.274Z,83.33
2018-10-11T01:35:09.597Z,84.00
2018-10-11T01:37:37.992Z,84.17
2018-10-11T01:40:06.464Z,83.68
2018-10-11T01:42:34.925Z,83.75
2018-10-11T01:45:03.265Z,84.13
2018-10-11T01:47:31.704Z,84.61
2018-10-11T01:50:00.028Z,84.93
2018-10-11T01:52:29.374Z,85.39
2018-10-11T01:54:57.731Z,85.38
2018-10-11T01:57:26.085Z,85.58
2018-10-11T01:59:54.421Z,86.17
2018-10-11T02:02:22.781Z,87.21
2018-10-11T02:04:51.108Z,88.02
2018-10-11T02:07:19.478Z,87.77
2018-10-11T02:09:47.806Z,87.72
2018-10-11T02:12:16.173Z,87.63
2018-10-11T02:14:44.497Z,88.40
2018-10-11T02:17:12.835Z,87.83
2018-10-11T02:19:41.177Z,88.22
2018-10-11T02:22:10.614Z,88.20
2018-10-11T02:24:41.081Z,88.51
2018-10-11T02:27:09.451Z,88.84
2018-10-11T02:29:39.125Z,89.12
2018-10-11T02:32:07.693Z,89.22
2018-10-11T02:34:35.964Z,90.04
2018-10-11T02:37:04.281Z,89.94
2018-10-11T02:39:32.614Z,89.77
2018-10-11T02:42:00.932Z,89.92
2018-10-11T02:44:29.260Z,90.10
2018-10-11T02:46:57.597Z,89.20
2018-10-11T02:49:26.013Z,89.22
2018-10-11T02:51:54.377Z,89.67
2018-10-11T02:54:22.781Z,89.31
2018-10-11T02:56:55.299Z,89.02
2018-10-11T02:59:31.592Z,88.70
2018-10-11T03:02:00.760Z,89.45
2018-10-11T03:04:29.834Z,89.22
2018-10-11T03:06:58.872Z,88.73
2018-10-11T03:09:27.533Z,89.15
2018-10-11T03:11:55.973Z,88.91
2018-10-11T03:14:24.660Z,88.74
2018-10-11T03:16:53.413Z,88.47
2018-10-11T03:19:21.789Z,88.70
2018-10-11T03:21:50.161Z,89.02
2018-10-11T03:24:18.534Z,89.76
2018-10-11T03:26:46.880Z,89.30
2018-10-11T03:29:15.237Z,89.65
2018-10-11T03:31:43.580Z,89.68
2018-10-11T03:34:11.948Z,89.52
2018-10-11T03:36:40.409Z,89.82
2018-10-11T03:39:08.960Z,89.78
2018-10-11T03:41:37.304Z,89.76
2018-10-11T03:44:05.672Z,90.23
2018-10-11T03:46:35.013Z,89.62
2018-10-11T03:49:03.377Z,90.10
2018-10-11T03:51:31.750Z,89.51
2018-10-11T03:54:00.501Z,89.14
2018-10-11T03:56:28.904Z,89.50
2018-10-11T03:58:58.988Z,89.01
2018-10-11T04:01:27.382Z,89.04
2018-10-11T04:03:56.458Z,88.56
2018-10-11T04:06:25.885Z,88.08
2018-10-11T04:08:54.754Z,88.23
2018-10-11T04:11:25.276Z,87.92
2018-10-11T04:13:53.611Z,87.91
2018-10-11T04:16:21.940Z,88.01
2018-10-11T04:18:50.409Z,88.04
2018-10-11T04:21:18.767Z,87.50
2018-10-11T04:23:47.096Z,87.51
2018-10-11T04:26:15.522Z,87.19
2018-10-11T04:28:44.953Z,86.63
2018-10-11T04:31:13.281Z,86.36
2018-10-11T04:33:41.664Z,85.98
2018-10-11T04:36:10.090Z,85.95
2018-10-11T04:38:38.401Z,85.72
2018-10-11T04:41:07.373Z,85.86
2018-10-11T04:43:35.707Z,85.76
2018-10-11T04:46:04.062Z,85.53
2018-10-11T04:48:32.434Z,85.77
2018-10-11T04:51:01.851Z,86.19
2018-10-11T04:53:30.181Z,85.63
2018-10-11T04:55:58.565Z,85.60
2018-10-11T04:58:26.915Z,85.71
2018-10-11T05:00:55.293Z,85.66
2018-10-11T05:03:23.671Z,84.94
2018-10-11T05:05:52.031Z,85.02
2018-10-11T05:08:20.385Z,84.96
2018-10-11T05:10:48.840Z,85.27
2018-10-11T05:13:17.694Z,85.18
2018-10-11T05:15:46.047Z,85.23
2018-10-11T05:18:17.013Z,85.33
2018-10-11T05:20:45.529Z,85.28
2018-10-11T05:23:14.901Z,84.69
2018-10-11T05:25:43.337Z,84.75
2018-10-11T05:28:13.757Z,85.72
2018-10-11T05:30:44.638Z,85.58
2018-10-11T05:33:13.549Z,85.38
2018-10-11T05:35:41.902Z,86.16
2018-10-11T05:38:10.264Z,86.04
2018-10-11T05:40:38.632Z,85.60
2018-10-11T05:43:07.060Z,84.73
2018-10-11T05:45:36.368Z,84.65
2018-10-11T05:48:04.773Z,84.64
2018-10-11T05:50:33.469Z,84.68
2018-10-11T05:53:01.884Z,85.07
2018-10-11T05:55:30.317Z,84.52
2018-10-11T05:57:58.721Z,84.01
2018-10-11T06:00:27.145Z,84.22
2018-10-11T06:03:01.057Z,84.54
2018-10-11T06:05:31.129Z,84.09
2018-10-11T06:08:00.647Z,83.89
2018-10-11T06:10:31.611Z,83.44
2018-10-11T06:13:01.091Z,84.32
2018-10-11T06:15:29.636Z,82.80
2018-10-11T06:17:58.051Z,83.40
2018-10-11T06:20:26.429Z,84.17
2018-10-11T06:22:54.769Z,83.51
2018-10-11T06:25:25.141Z,83.42
2018-10-11T06:27:53.553Z,82.71
2018-10-11T06:30:21.962Z,82.23
2018-10-11T06:32:50.468Z,82.09
2018-10-11T06:35:18.925Z,81.54
2018-10-11T06:37:47.284Z,80.81
2018-10-11T06:40:15.652Z,80.88
2018-10-11T06:42:44.843Z,80.49
2018-10-11T06:45:14.432Z,80.58
2018-10-11T06:47:45.453Z,79.87
2018-10-11T06:50:14.943Z,79.56
2018-10-11T06:52:43.308Z,80.03
2018-10-11T06:55:11.703Z,80.37
2018-10-11T06:57:40.041Z,79.70
2018-10-11T07:00:08.397Z,78.81
2018-10-11T07:02:36.750Z,78.49
2018-10-11T07:05:05.151Z,77.64
2018-10-11T07:07:33.516Z,77.35
2018-10-11T07:10:01.905Z,78.32
2018-10-11T07:12:31.300Z,77.91
2018-10-11T07:14:59.660Z,78.88
2018-10-11T07:17:28.033Z,77.36
2018-10-11T07:19:56.392Z,75.88
2018-10-11T07:22:24.748Z,75.65
2018-10-11T07:24:53.148Z,76.10
2018-10-11T07:27:21.504Z,75.81
2018-10-11T07:29:50.882Z,74.56
2018-10-11T07:32:24.833Z,74.95
2018-10-11T07:34:53.322Z,74.15
2018-10-11T07:37:21.632Z,73.96
2018-10-11T07:39:50.756Z,73.55
2018-10-11T07:42:19.142Z,73.03
2018-10-11T07:44:47.574Z,72.24
2018-10-11T07:47:15.978Z,71.83
2018-10-11T07:49:44.349Z,71.73
2018-10-11T07:52:12.740Z,71.92
2018-10-11T07:54:41.119Z,71.03
2018-10-11T07:57:09.497Z,69.84
2018-10-11T07:59:37.860Z,70.23
2018-10-11T08:02:06.268Z,70.42
2018-10-11T08:04:34.627Z,70.31
2018-10-11T08:07:03.083Z,68.97
2018-10-11T08:09:31.486Z,68.99
2018-10-11T08:12:00.091Z,68.54
2018-10-11T08:14:29.306Z,68.11
2018-10-11T08:16:57.799Z,67.44
2018-10-11T08:19:26.381Z,66.43
2018-10-11T08:21:54.402Z,66.59
2018-10-11T08:24:22.815Z,66.74
2018-10-11T08:26:51.210Z,66.85
2018-10-11T08:29:19.519Z,66.19
2018-10-11T08:31:49.064Z,66.01
2018-10-11T08:34:17.309Z,65.14
2018-10-11T08:36:46.753Z,64.59
2018-10-11T08:39:15.168Z,64.61
2018-10-11T08:41:43.548Z,64.24
2018-10-11T08:44:13.393Z,65.22
2018-10-11T08:46:42.912Z,63.77
2018-10-11T08:49:11.374Z,63.35
2018-10-11T08:51:39.748Z,64.78
2018-10-11T08:54:15.336Z,64.73
2018-10-11T08:56:43.785Z,64.26
2018-10-11T08:59:13.337Z,62.86
2018-10-11T09:01:41.647Z,63.29
2018-10-11T09:04:10.092Z,63.00
2018-10-11T09:06:38.411Z,62.98
2018-10-11T09:09:09.850Z,64.03
2018-10-11T09:11:38.307Z,63.74
2018-10-11T09:14:06.811Z,63.16
2018-10-11T09:16:35.533Z,62.09
2018-10-11T09:19:04.054Z,62.00
2018-10-11T09:21:33.050Z,61.59
2018-10-11T09:24:01.422Z,61.08
2018-10-11T09:26:29.861Z,61.25
2018-10-11T09:28:58.264Z,60.52
2018-10-11T09:31:26.663Z,61.12
2018-10-11T09:33:55.061Z,60.25
2018-10-11T09:36:24.558Z,59.39
2018-10-11T09:38:53.542Z,58.55
2018-10-11T09:41:22.012Z,60.35
2018-10-11T09:43:50.361Z,59.29
2018-10-11T09:46:18.805Z,58.92
2018-10-11T09:48:47.208Z,58.69
2018-10-11T09:51:15.549Z,59.28
2018-10-11T09:53:43.965Z,59.38
2018-10-11T09:56:12.340Z,58.83
2018-10-11T09:58:40.716Z,58.16
2018-10-11T10:01:16.524Z,58.24
2018-10-11T10:03:44.913Z,58.41
2018-10-11T10:06:13.293Z,58.70
2018-10-11T10:08:41.668Z,58.57
2018-10-11T10:11:10.081Z,57.59
2018-10-11T10:13:38.450Z,56.90
2018-10-11T10:16:06.829Z,56.81
2018-10-11T10:18:35.181Z,57.00
2018-10-11T10:21:03.614Z,55.33
2018-10-11T10:23:31.945Z,55.62
2018-10-11T10:26:00.321Z,54.90
2018-10-11T10:28:28.707Z,55.42
2018-10-11T10:30:58.113Z,55.17
2018-10-11T10:33:26.464Z,55.12
2018-10-11T10:35:54.834Z,54.70
2018-10-11T10:38:25.234Z,55.99
2018-10-11T10:40:53.657Z,54.84
2018-10-11T10:43:22.021Z,54.96
2018-10-11T10:45:50.406Z,54.77
2018-10-11T10:48:20.783Z,54.64
2018-10-11T10:50:49.138Z,54.65
2018-10-11T10:53:17.572Z,54.79
2018-10-11T10:55:45.959Z,54.77
2018-10-11T10:58:14.342Z,54.83
2018-10-11T11:00:42.860Z,54.93
2018-10-11T11:03:11.228Z,53.54
2018-10-11T11:05:39.629Z,53.23
2018-10-11T11:08:08.089Z,52.53
2018-10-11T11:10:36.485Z,53.53
2018-10-11T11:13:05.991Z,53.16
2018-10-11T11:15:34.389Z,52.06
2018-10-11T11:18:03.785Z,52.04
2018-10-11T11:20:32.141Z,52.83
2018-10-11T11:23:00.541Z,52.19
2018-10-11T11:25:30.893Z,52.59
2018-10-11T11:27:59.281Z,52.20
2018-10-11T11:30:27.751Z,52.57
2018-10-11T11:32:56.169Z,52.04
2018-10-11T11:35:24.514Z,51.67
2018-10-11T11:37:53.865Z,51.29
2018-10-11T11:40:22.221Z,52.13
2018-10-11T11:42:50.598Z,51.24
2018-10-11T11:45:18.943Z,52.21
2018-10-11T11:47:47.281Z,51.14
2018-10-11T11:50:15.624Z,50.94
2018-10-11T11:52:44.924Z,51.94
2018-10-11T11:55:14.305Z,50.64
2018-10-11T11:57:42.732Z,50.12
2018-10-11T12:00:12.175Z,50.25
2018-10-11T12:02:44.637Z,50.70
2018-10-11T12:05:13.098Z,50.07
2018-10-11T12:07:42.068Z,50.49
2018-10-11T12:10:10.477Z,49.75
2018-10-11T12:13:12.609Z,50.40
2018-10-11T12:15:42.337Z,50.03
2018-10-11T12:18:11.622Z,49.92
2018-10-11T12:20:41.150Z,49.04
2018-10-11T12:23:10.528Z,48.40
2018-10-11T12:25:38.986Z,48.87
2018-10-11T12:28:07.767Z,47.72
2018-10-11T12:30:36.431Z,48.90
2018-10-11T12:33:06.525Z,47.66
2018-10-11T12:35:35.938Z,48.10
2018-10-11T12:38:04.305Z,48.18
2018-10-11T12:40:32.701Z,48.01
2018-10-11T12:43:01.097Z,48.11
2018-10-11T12:45:29.477Z,48.21
2018-10-11T12:47:57.845Z,47.59
2018-10-11T12:50:26.274Z,46.96
2018-10-11T12:52:54.618Z,47.81
2018-10-11T12:55:24.017Z,47.21
2018-10-11T12:57:53.389Z,47.38
2018-10-11T13:00:21.768Z,46.47
2018-10-11T13:02:50.221Z,47.57
2018-10-11T13:05:18.540Z,46.26
2018-10-11T13:07:48.966Z,44.90
2018-10-11T13:10:17.330Z,43.03
2018-10-11T13:12:45.685Z,40.04
2018-10-11T13:15:14.296Z,36.51
2018-10-11T13:17:43.976Z,36.75
2018-10-11T13:20:11.888Z,35.89
2018-10-11T13:22:40.308Z,37.85
2018-10-11T13:25:10.688Z,40.00
2018-10-11T13:27:40.121Z,41.45
2018-10-11T13:30:09.616Z,42.22
2018-10-11T13:32:37.964Z,43.67
2018-10-11T13:35:07.076Z,43.94
2018-10-11T13:37:35.336Z,43.96
2018-10-11T13:40:03.855Z,44.56
2018-10-11T13:42:32.221Z,44.73
2018-10-11T13:45:01.599Z,45.56
2018-10-11T13:47:29.958Z,44.56
2018-10-11T13:49:59.314Z,44.59
2018-10-11T13:52:27.677Z,44.52
2018-10-11T13:54:56.101Z,44.15
2018-10-11T13:57:26.845Z,44.82
2018-10-11T13:59:52.949Z,44.69
2018-10-11T14:02:21.337Z,43.78
2018-10-11T14:04:51.827Z,44.15
2018-10-11T14:07:20.238Z,43.67
2018-10-11T14:09:48.623Z,43.79
2018-10-11T14:12:16.996Z,43.75
2018-10-11T14:14:45.345Z,44.29
2018-10-11T14:17:13.701Z,43.78
2018-10-11T14:19:48.047Z,43.58
2018-10-11T14:22:16.397Z,43.56
2018-10-11T14:24:44.769Z,43.43
2018-10-11T14:27:13.148Z,43.86
2018-10-11T14:29:41.533Z,43.35
2018-10-11T14:32:09.917Z,43.00
2018-10-11T14:34:39.301Z,43.32
2018-10-11T14:37:07.842Z,43.15
2018-10-11T14:39:36.057Z,43.45
2018-10-11T14:42:04.475Z,42.83
2018-10-11T14:44:32.812Z,42.97
2018-10-11T14:47:01.200Z,43.30
2018-10-11T14:49:29.598Z,42.82
2018-10-11T14:51:57.960Z,40.68
2018-10-11T14:54:26.341Z,41.20
2018-10-11T14:56:56.742Z,40.92
2018-10-11T14:59:25.110Z,40.58
2018-10-11T15:01:53.449Z,40.27
2018-10-11T15:04:21.807Z,40.98
2018-10-11T15:06:50.178Z,41.40
2018-10-11T15:09:18.573Z,42.33
2018-10-11T15:11:46.993Z,40.74
2018-10-11T15:14:15.320Z,35.91
2018-10-11T15:16:43.749Z,30.26
2018-10-11T15:19:12.105Z,25.68
2018-10-11T15:21:40.465Z,23.00
2018-10-11T15:24:09.221Z,22.01
2018-10-11T15:26:39.667Z,21.14
2018-10-11T15:29:09.067Z,21.29
2018-10-11T15:31:37.461Z,25.00
2018-10-11T15:34:05.824Z,28.60
2018-10-11T15:36:34.197Z,34.46
2018-10-11T15:39:04.282Z,36.84
2018-10-11T15:41:32.641Z,39.02
2018-10-11T15:44:00.988Z,40.62
2018-10-11T15:46:29.401Z,42.12
2018-10-11T15:48:57.749Z,43.20
2018-10-11T15:51:26.195Z,44.38
2018-10-11T15:53:54.586Z,44.99
2018-10-11T15:56:22.920Z,45.53
2018-10-11T15:58:51.300Z,45.47
2018-10-11T16:01:19.695Z,46.95
2018-10-11T16:03:48.108Z,48.21
2018-10-11T16:06:16.568Z,48.42
2018-10-11T16:08:44.928Z,49.08
2018-10-11T16:11:13.272Z,49.43
2018-10-11T16:13:41.714Z,50.06
2018-10-11T16:16:10.032Z,50.59
2018-10-11T16:18:38.418Z,50.83
2018-10-11T16:21:09.425Z,51.61
2018-10-11T16:23:37.809Z,51.80
2018-10-11T16:27:09.251Z,51.91
2018-10-11T16:29:38.668Z,52.68
2018-10-11T16:32:07.076Z,52.98
2018-10-11T16:37:26.178Z,54.49
2018-10-11T16:39:54.554Z,54.53
2018-10-11T16:42:22.941Z,54.64
2018-10-11T16:44:51.357Z,55.11
2018-10-11T16:47:19.745Z,55.80
2018-10-11T16:49:48.212Z,55.82
2018-10-11T16:52:16.520Z,56.29
2018-10-11T16:54:45.352Z,57.14
2018-10-11T16:57:15.128Z,57.78
2018-10-11T16:59:45.017Z,57.40
2018-10-11T17:02:13.629Z,57.68
2018-10-11T17:04:42.016Z,58.25
2018-10-11T17:07:10.401Z,58.60
2018-10-11T17:09:38.803Z,58.65
2018-10-11T17:12:07.153Z,58.99
2018-10-11T17:14:35.553Z,59.24
2018-10-11T17:17:03.928Z,59.29
2018-10-11T17:19:32.319Z,59.46
2018-10-11T17:22:00.786Z,59.21
2018-10-11T17:24:33.092Z,59.79
2018-10-11T17:27:01.804Z,60.08
2018-10-11T17:29:30.239Z,60.33
2018-10-11T17:31:58.964Z,60.70
2018-10-11T17:34:27.458Z,61.09
2018-10-11T17:36:55.809Z,61.08
2018-10-11T17:39:24.165Z,60.97
2018-10-11T17:41:52.539Z,61.31
2018-10-11T17:44:20.916Z,61.40
2018-10-11T17:46:49.308Z,62.16
2018-10-11T17:49:17.689Z,61.92
2018-10-11T17:51:46.084Z,62.28
2018-10-11T17:54:14.464Z,62.21
2018-10-11T17:56:42.947Z,61.83
2018-10-11T17:59:11.326Z,61.78
2018-10-11T18:01:39.709Z,61.66
2018-10-11T18:04:08.166Z,60.84
2018-10-11T18:06:37.272Z,60.83
2018-10-11T18:09:07.408Z,60.71
2018-10-11T18:11:37.796Z,59.81
2018-10-11T18:14:06.770Z,59.66
2018-10-11T18:16:35.151Z,60.00
2018-10-11T18:19:03.593Z,59.78
2018-10-11T18:21:31.979Z,60.03
2018-10-11T18:24:00.429Z,59.58
2018-10-11T18:26:28.809Z,59.08
2018-10-11T18:28:57.260Z,59.50
2018-10-11T18:31:25.653Z,59.52
2018-10-11T18:33:54.053Z,58.93
2018-10-11T18:36:22.526Z,59.09
2018-10-11T18:38:50.877Z,58.74
2018-10-11T18:41:19.477Z,58.69
2018-10-11T18:43:47.848Z,58.44
2018-10-11T18:46:16.261Z,58.50
2018-10-11T18:48:44.649Z,58.17
2018-10-11T18:51:13.030Z,58.15
2018-10-11T18:53:41.403Z,57.62
2018-10-11T18:56:09.953Z,57.74
2018-10-11T18:58:38.342Z,58.28
2018-10-11T19:01:06.730Z,58.13
2018-10-11T19:03:36.231Z,57.68
2018-10-11T19:06:05.726Z,57.72
2018-10-11T19:08:34.089Z,57.81
2018-10-11T19:11:02.476Z,57.71
2018-10-11T19:13:32.905Z,57.50
2018-10-11T19:16:02.375Z,57.78
2018-10-11T19:18:34.060Z,57.68
2018-10-11T19:21:04.321Z,57.64
2018-10-11T19:23:32.725Z,57.60
2018-10-11T19:26:01.132Z,57.37
2018-10-11T19:28:29.743Z,57.02
2018-10-11T19:31:00.852Z,57.46
2018-10-11T19:33:29.248Z,57.49
2018-10-11T19:35:57.612Z,57.47
2018-10-11T19:38:26.997Z,57.55
2018-10-11T19:40:55.393Z,58.12
2018-10-11T19:43:23.756Z,57.89
2018-10-11T19:45:52.728Z,58.05
2018-10-11T19:48:22.216Z,58.31
2018-10-11T19:50:50.737Z,58.20
2018-10-11T19:53:19.170Z,59.08
2018-10-11T19:55:47.557Z,58.99
2018-10-11T19:58:16.492Z,59.63
2018-10-11T20:00:44.926Z,59.41
2018-10-11T20:03:13.289Z,59.24
2018-10-11T20:05:42.752Z,59.01
2018-10-11T20:08:11.246Z,59.33
2018-10-11T20:10:39.545Z,59.41
2018-10-11T20:13:07.964Z,59.48
2018-10-11T20:15:37.445Z,59.67
2018-10-11T20:18:05.925Z,59.78
2018-10-11T20:20:34.361Z,59.64
2018-10-11T20:23:02.821Z,59.67
2018-10-11T20:25:31.194Z,60.20
2018-10-11T20:28:00.573Z,60.40
2018-10-11T20:30:29.054Z,60.92
2018-10-11T20:32:57.496Z,61.17
2018-10-11T20:35:25.838Z,61.21
2018-10-11T20:37:55.357Z,61.11
2018-10-11T20:40:23.721Z,61.64
2018-10-11T20:42:52.087Z,61.89
2018-10-11T20:45:20.548Z,62.05
2018-10-11T20:47:48.960Z,62.15
2018-10-11T20:50:17.333Z,61.82
2018-10-11T20:52:45.731Z,62.50
2018-10-11T20:55:14.148Z,62.33
2018-10-11T20:57:42.501Z,62.17
2018-10-11T21:00:11.193Z,62.41
2018-10-11T21:02:39.617Z,62.42
2018-10-11T21:05:08.032Z,62.53
2018-10-11T21:07:36.545Z,62.88
2018-10-11T21:10:06.690Z,63.25
2018-10-11T21:12:35.080Z,63.60
2018-10-11T21:15:03.598Z,63.80
2018-10-11T21:17:32.017Z,64.44
2018-10-11T21:20:00.430Z,64.15
2018-10-11T21:22:28.805Z,63.11
2018-10-11T21:24:57.165Z,63.46
2018-10-11T21:27:25.549Z,63.72
2018-10-11T21:29:54.065Z,64.03
2018-10-11T21:32:22.429Z,63.91
2018-10-11T21:34:50.800Z,64.24
2018-10-11T21:37:19.173Z,63.64
2018-10-11T21:39:47.535Z,63.86
2018-10-11T21:42:15.965Z,63.90
2018-10-11T21:44:45.366Z,63.80
2018-10-11T21:47:13.789Z,63.60
2018-10-11T21:49:42.176Z,63.96
2018-10-11T21:52:10.801Z,63.92
2018-10-11T21:54:39.172Z,63.73
2018-10-11T21:57:07.780Z,63.69
2018-10-11T21:59:36.185Z,64.08
2018-10-11T22:02:04.529Z,63.69
2018-10-11T22:04:32.992Z,64.11
2018-10-11T22:07:01.412Z,64.30
2018-10-11T22:09:29.826Z,64.60
2018-10-11T22:11:58.232Z,64.38
2018-10-11T22:14:26.691Z,64.96
2018-10-11T22:16:55.481Z,64.96
2018-10-11T22:19:24.385Z,64.95
2018-10-11T22:21:52.954Z,64.86
2018-10-11T22:24:21.320Z,65.80
2018-10-11T22:26:51.646Z,65.93
2018-10-11T22:29:20.061Z,65.91
2018-10-11T22:31:49.539Z,66.43
2018-10-11T22:34:17.961Z,66.38
2018-10-11T22:36:46.421Z,66.13
2018-10-11T22:39:14.757Z,66.65
2018-10-11T22:41:44.173Z,66.01
2018-10-11T22:44:12.983Z,66.04
2018-10-11T22:46:42.073Z,66.25
2018-10-11T22:49:10.971Z,66.24
2018-10-11T22:51:39.913Z,66.39
2018-10-11T22:54:09.024Z,65.95
2018-10-11T22:56:37.413Z,65.73
2018-10-11T22:59:06.096Z,65.41
2018-10-11T23:01:34.496Z,65.04
2018-10-11T23:04:02.937Z,64.94
2018-10-11T23:06:31.386Z,64.24
2018-10-11T23:08:59.800Z,64.78
2018-10-11T23:11:28.227Z,64.36
2018-10-11T23:13:56.765Z,64.33
2018-10-11T23:16:25.424Z,64.49
2018-10-11T23:18:53.814Z,64.31
2018-10-11T23:21:22.228Z,64.36
2018-10-11T23:23:50.653Z,64.18
2018-10-11T23:26:19.064Z,64.31
2018-10-11T23:28:47.468Z,64.29
2018-10-11T23:31:15.848Z,63.92
2018-10-11T23:33:44.304Z,63.64
2018-10-11T23:36:13.789Z,64.15
2018-10-11T23:38:42.176Z,64.16
2018-10-11T23:41:10.537Z,64.17
2018-10-11T23:43:39.143Z,64.35
2018-10-11T23:46:08.648Z,64.23
2018-10-11T23:48:36.994Z,64.10
2018-10-11T23:51:05.401Z,64.49
2018-10-11T23:53:33.860Z,64.10
2018-10-11T23:56:02.742Z,64.29
2018-10-11T23:58:31.097Z,64.83
